METAR Data
IDs: Format: Raw Decoded Include TAF

Data at: 0010 UTC 30 May 2020

METAR for:KDBQ (Dubuque Rgnl, IA, US)
Text:KDBQ 292353Z 33010KT 10SM CLR 18/09 A3011 RMK AO2 SLP194 T01780089 10183 20156 53005
Temperature: 17.8°C ( 64°F)
Dewpoint: 8.9°C ( 48°F) [RH = 56%]
Pressure (altimeter):30.11 inches Hg (1019.7 mb) [Sea level pressure: 1019.4 mb]
Winds:from the NNW (330 degrees) at 12 MPH (10 knots; 5.1 m/s)
Visibility:10 or more sm (16+ km)
Ceiling:at least 12,000 feet AGL
Clouds:sky clear below 12,000 feet AGL